createdAt,value
2018-06-29T00:00:35.193Z,21.24
2018-06-29T00:01:34.883Z,21.23
2018-06-29T00:02:35.117Z,21.24
2018-06-29T00:03:35.043Z,21.24
2018-06-29T00:04:35.023Z,21.24
2018-06-29T00:05:35.246Z,21.23
2018-06-29T00:06:35.016Z,21.23
2018-06-29T00:07:35.073Z,21.24
2018-06-29T00:08:34.940Z,21.24
2018-06-29T00:09:35.199Z,21.24
2018-06-29T00:10:34.928Z,21.25
2018-06-29T00:11:35.099Z,21.25
2018-06-29T00:12:35.080Z,21.26
2018-06-29T00:13:35.063Z,21.27
2018-06-29T00:14:35.222Z,21.28
2018-06-29T00:15:34.933Z,21.3
2018-06-29T00:16:35.351Z,21.3
2018-06-29T00:17:35.103Z,21.31
2018-06-29T00:18:34.975Z,21.32
2018-06-29T00:19:34.957Z,21.32
2018-06-29T00:20:35.244Z,21.33
2018-06-29T00:21:34.975Z,21.34
2018-06-29T00:22:34.964Z,21.35
2018-06-29T00:23:35.082Z,21.36
2018-06-29T00:24:35.547Z,21.36
2018-06-29T00:25:35.146Z,21.38
2018-06-29T00:26:34.967Z,21.38
2018-06-29T00:27:35.159Z,21.42
2018-06-29T00:28:34.956Z,21.41
2018-06-29T00:29:35.241Z,21.42
2018-06-29T00:30:35.421Z,21.43
2018-06-29T00:31:35.053Z,21.46
2018-06-29T00:32:35.239Z,21.47
2018-06-29T00:33:35.063Z,21.48
2018-06-29T00:34:35.253Z,21.48
2018-06-29T00:35:35.100Z,21.48
2018-06-29T00:36:35.112Z,21.48
2018-06-29T00:37:35.084Z,21.5
2018-06-29T00:38:35.139Z,21.52
2018-06-29T00:39:35.116Z,21.52
2018-06-29T00:40:35.065Z,21.52
2018-06-29T00:41:35.127Z,21.55
2018-06-29T00:42:35.115Z,21.56
2018-06-29T00:43:35.251Z,21.55
2018-06-29T00:44:35.127Z,21.55
2018-06-29T00:45:35.075Z,21.56
2018-06-29T00:46:35.023Z,21.57
2018-06-29T00:47:35.028Z,21.57
2018-06-29T00:48:35.034Z,21.58
2018-06-29T00:49:35.177Z,21.58
2018-06-29T00:50:35.158Z,21.59
2018-06-29T00:51:35.176Z,21.59
2018-06-29T00:52:35.171Z,21.6
2018-06-29T00:53:35.213Z,21.6
2018-06-29T00:54:35.406Z,21.61
2018-06-29T00:55:34.938Z,21.61
2018-06-29T00:56:35.082Z,21.63
2018-06-29T00:57:35.077Z,21.63
2018-06-29T00:58:34.964Z,21.63
2018-06-29T00:59:35.248Z,21.62
2018-06-29T01:00:35.181Z,21.62
2018-06-29T01:01:35.160Z,21.63
2018-06-29T01:02:35.166Z,21.63
2018-06-29T01:03:35.093Z,21.62
2018-06-29T01:04:35.232Z,21.62
2018-06-29T01:05:35.181Z,21.62
2018-06-29T01:06:34.881Z,21.61
2018-06-29T01:07:35.020Z,21.64
2018-06-29T01:08:35.207Z,21.63
2018-06-29T01:09:35.026Z,21.61
2018-06-29T01:10:35.201Z,21.61
2018-06-29T01:11:35.144Z,21.61
2018-06-29T01:12:35.187Z,21.6
2018-06-29T01:13:35.183Z,21.59
2018-06-29T01:14:34.914Z,21.59
2018-06-29T01:15:34.890Z,21.58
2018-06-29T01:16:35.011Z,21.57
2018-06-29T01:17:35.213Z,21.57
2018-06-29T01:18:34.880Z,21.56
2018-06-29T01:19:34.858Z,21.56
2018-06-29T01:20:35.290Z,21.55
2018-06-29T01:21:35.212Z,21.55
2018-06-29T01:22:34.934Z,21.54
2018-06-29T01:23:34.951Z,21.54
2018-06-29T01:24:34.830Z,21.53
2018-06-29T01:25:35.144Z,21.53
2018-06-29T01:26:34.970Z,21.52
2018-06-29T01:27:34.894Z,21.52
2018-06-29T01:28:35.355Z,21.5
2018-06-29T01:29:35.017Z,21.5
2018-06-29T01:30:34.887Z,21.5
2018-06-29T01:31:34.929Z,21.49
2018-06-29T01:32:34.951Z,21.48
2018-06-29T01:33:34.802Z,21.48
2018-06-29T01:34:35.206Z,21.48
2018-06-29T01:35:34.905Z,21.48
2018-06-29T01:36:34.995Z,21.47
2018-06-29T01:37:35.020Z,21.47
2018-06-29T01:38:34.969Z,21.46
2018-06-29T01:39:34.935Z,21.45
2018-06-29T01:40:35.055Z,21.45
2018-06-29T01:41:35.043Z,21.44
2018-06-29T01:42:45.021Z,21.44
2018-06-29T01:43:34.973Z,21.43
2018-06-29T01:44:34.876Z,21.42
2018-06-29T01:45:35.140Z,21.42
2018-06-29T01:46:35.097Z,21.42
2018-06-29T01:47:34.997Z,21.42
2018-06-29T01:48:35.065Z,21.41
2018-06-29T01:49:35.050Z,21.41
2018-06-29T01:50:34.996Z,21.4
2018-06-29T01:51:34.902Z,21.4
2018-06-29T01:52:35.403Z,21.39
2018-06-29T01:53:34.906Z,21.39
2018-06-29T01:54:34.893Z,21.39
2018-06-29T01:55:35.002Z,21.38
2018-06-29T01:56:35.060Z,21.38
2018-06-29T01:57:35.194Z,21.37
2018-06-29T01:58:35.123Z,21.37
2018-06-29T01:59:35.044Z,21.37
2018-06-29T02:00:34.942Z,21.37
2018-06-29T02:01:35.099Z,21.36
2018-06-29T02:02:35.041Z,21.36
2018-06-29T02:03:35.064Z,21.36
2018-06-29T02:04:35.072Z,21.36
2018-06-29T02:05:35.020Z,21.35
2018-06-29T02:06:34.977Z,21.35
2018-06-29T02:07:34.996Z,21.35
2018-06-29T02:08:35.009Z,21.35
2018-06-29T02:09:34.852Z,21.34
2018-06-29T02:10:35.112Z,21.34
2018-06-29T02:11:35.117Z,21.33
2018-06-29T02:12:34.965Z,21.33
2018-06-29T02:13:35.129Z,21.33
2018-06-29T02:14:34.999Z,21.32
2018-06-29T02:15:34.901Z,21.32
2018-06-29T02:16:35.098Z,21.32
2018-06-29T02:17:35.167Z,21.32
2018-06-29T02:18:34.932Z,21.32
2018-06-29T02:19:34.909Z,21.31
2018-06-29T02:20:35.189Z,21.31
2018-06-29T02:21:34.832Z,21.31
2018-06-29T02:22:35.182Z,21.3
2018-06-29T02:23:35.111Z,21.3
2018-06-29T02:24:35.023Z,21.3
2018-06-29T02:25:34.857Z,21.3
2018-06-29T02:26:35.022Z,21.3
2018-06-29T02:27:35.326Z,21.3
2018-06-29T02:28:34.964Z,21.3
2018-06-29T02:29:35.045Z,21.3
2018-06-29T02:30:35.485Z,21.29
2018-06-29T02:31:34.985Z,21.29
2018-06-29T02:32:34.858Z,21.29
2018-06-29T02:33:34.975Z,21.29
2018-06-29T02:34:34.903Z,21.28
2018-06-29T02:35:34.922Z,21.29
2018-06-29T02:36:35.050Z,21.28
2018-06-29T02:37:34.954Z,21.28
2018-06-29T02:38:35.111Z,21.28
2018-06-29T02:39:34.932Z,21.27
2018-06-29T02:40:35.007Z,21.28
2018-06-29T02:41:34.971Z,21.27
2018-06-29T02:42:34.944Z,21.27
2018-06-29T02:43:34.973Z,21.27
2018-06-29T02:44:34.940Z,21.27
2018-06-29T02:45:34.862Z,21.27
2018-06-29T02:46:35.019Z,21.26
2018-06-29T02:47:35.103Z,21.26
2018-06-29T02:48:35.032Z,21.26
2018-06-29T02:49:34.981Z,21.25
2018-06-29T02:50:34.882Z,21.25
2018-06-29T02:51:34.990Z,21.25
2018-06-29T02:52:35.032Z,21.25
2018-06-29T02:53:35.127Z,21.25
2018-06-29T02:54:34.925Z,21.25
2018-06-29T02:55:34.925Z,21.25
2018-06-29T02:56:35.093Z,21.25
2018-06-29T02:57:34.977Z,21.24
2018-06-29T02:58:34.955Z,21.25
2018-06-29T02:59:34.931Z,21.24
2018-06-29T03:00:35.115Z,21.24
2018-06-29T03:01:34.974Z,21.24
2018-06-29T03:02:35.096Z,21.24
2018-06-29T03:03:35.140Z,21.24
2018-06-29T03:04:34.953Z,21.24
2018-06-29T03:05:34.909Z,21.24
2018-06-29T03:06:35.066Z,21.24
2018-06-29T03:07:34.988Z,21.24
2018-06-29T03:08:34.951Z,21.23
2018-06-29T03:09:35.114Z,21.24
2018-06-29T03:10:34.997Z,21.24
2018-06-29T03:11:35.080Z,21.24
2018-06-29T03:12:35.108Z,21.23
2018-06-29T03:13:35.081Z,21.23
2018-06-29T03:14:35.053Z,21.23
2018-06-29T03:15:35.004Z,21.23
2018-06-29T03:16:35.026Z,21.22
2018-06-29T03:17:35.038Z,21.23
2018-06-29T03:18:35.181Z,21.23
2018-06-29T03:19:35.228Z,21.22
2018-06-29T03:20:35.099Z,21.22
2018-06-29T03:21:35.095Z,21.23
2018-06-29T03:22:35.084Z,21.22
2018-06-29T03:23:35.086Z,21.21
2018-06-29T03:24:35.084Z,21.21
2018-06-29T03:25:35.001Z,21.21
2018-06-29T03:26:34.951Z,21.21
2018-06-29T03:27:35.099Z,21.21
2018-06-29T03:28:35.056Z,21.21
2018-06-29T03:29:35.081Z,21.2
2018-06-29T03:30:35.002Z,21.2
2018-06-29T03:31:35.161Z,21.2
2018-06-29T03:32:35.203Z,21.21
2018-06-29T03:33:34.987Z,21.2
2018-06-29T03:34:34.898Z,21.2
2018-06-29T03:35:35.110Z,21.2
2018-06-29T03:36:35.156Z,21.2
2018-06-29T03:37:35.077Z,21.19
2018-06-29T03:38:34.863Z,21.19
2018-06-29T03:39:34.835Z,21.19
2018-06-29T03:40:36.263Z,21.19
2018-06-29T03:41:35.125Z,21.19
2018-06-29T03:42:35.148Z,21.19
2018-06-29T03:43:34.970Z,21.19
2018-06-29T03:44:35.079Z,21.18
2018-06-29T03:45:34.930Z,21.19
2018-06-29T03:46:34.869Z,21.18
2018-06-29T03:47:35.162Z,21.18
2018-06-29T03:48:35.189Z,21.18
2018-06-29T03:49:35.572Z,21.18
2018-06-29T03:50:35.102Z,21.18
2018-06-29T03:51:34.990Z,21.18
2018-06-29T03:52:35.110Z,21.18
2018-06-29T03:53:34.881Z,21.18
2018-06-29T03:54:34.907Z,21.18
2018-06-29T03:55:34.900Z,21.18
2018-06-29T03:56:35.050Z,21.18
2018-06-29T03:57:34.851Z,21.17
2018-06-29T03:58:34.953Z,21.17
2018-06-29T03:59:35.041Z,21.17
2018-06-29T04:00:34.879Z,21.17
2018-06-29T04:01:34.905Z,21.17
2018-06-29T04:02:34.969Z,21.17
2018-06-29T04:03:35.308Z,21.17
2018-06-29T04:04:34.823Z,21.17
2018-06-29T04:05:35.020Z,21.17
2018-06-29T04:06:34.983Z,21.17
2018-06-29T04:07:34.976Z,21.16
2018-06-29T04:08:35.201Z,21.16
2018-06-29T04:09:34.815Z,21.16
2018-06-29T04:10:34.970Z,21.16
2018-06-29T04:11:35.234Z,21.16
2018-06-29T04:12:35.249Z,21.16
2018-06-29T04:13:34.995Z,21.16
2018-06-29T04:14:34.849Z,21.16
2018-06-29T04:15:35.027Z,21.15
2018-06-29T04:16:35.019Z,21.16
2018-06-29T04:17:35.001Z,21.15
2018-06-29T04:18:35.361Z,21.15
2018-06-29T04:19:34.947Z,21.15
2018-06-29T04:20:34.893Z,21.15
2018-06-29T04:21:35.066Z,21.15
2018-06-29T04:22:34.826Z,21.15
2018-06-29T04:23:34.915Z,21.14
2018-06-29T04:24:35.042Z,21.15
2018-06-29T04:25:34.924Z,21.14
2018-06-29T04:26:35.792Z,21.14
2018-06-29T04:27:35.067Z,21.14
2018-06-29T04:28:35.030Z,21.14
2018-06-29T04:29:34.942Z,21.14
2018-06-29T04:30:34.796Z,21.14
2018-06-29T04:31:34.896Z,21.14
2018-06-29T04:32:34.934Z,21.14
2018-06-29T04:33:34.750Z,21.13
2018-06-29T04:34:35.373Z,21.14
2018-06-29T04:35:34.973Z,21.13
2018-06-29T04:36:35.001Z,21.13
2018-06-29T04:37:34.930Z,21.13
2018-06-29T04:38:35.271Z,21.13
2018-06-29T04:39:34.975Z,21.13
2018-06-29T04:40:34.988Z,21.13
2018-06-29T04:41:34.859Z,21.13
2018-06-29T04:42:34.891Z,21.13
2018-06-29T04:43:34.985Z,21.13
2018-06-29T04:44:34.865Z,21.13
2018-06-29T04:45:35.061Z,21.13
2018-06-29T04:46:34.929Z,21.13
2018-06-29T04:47:35.079Z,21.13
2018-06-29T04:48:34.884Z,21.13
2018-06-29T04:49:35.045Z,21.13
2018-06-29T04:50:34.934Z,21.13
2018-06-29T04:51:34.853Z,21.13
2018-06-29T04:52:34.969Z,21.13
2018-06-29T04:53:34.819Z,21.13
2018-06-29T04:54:34.928Z,21.13
2018-06-29T04:55:35.002Z,21.13
2018-06-29T04:56:34.937Z,21.13
2018-06-29T04:57:34.959Z,21.13
2018-06-29T04:58:35.006Z,21.12
2018-06-29T04:59:34.978Z,21.13
2018-06-29T05:00:34.878Z,21.12
2018-06-29T05:01:34.983Z,21.12
2018-06-29T05:02:34.797Z,21.12
2018-06-29T05:03:34.877Z,21.12
2018-06-29T05:04:35.085Z,21.12
2018-06-29T05:05:34.954Z,21.13
2018-06-29T05:06:34.960Z,21.13
2018-06-29T05:07:34.945Z,21.12
2018-06-29T05:08:34.974Z,21.12
2018-06-29T05:09:34.941Z,21.12
2018-06-29T05:10:35.001Z,21.12
2018-06-29T05:11:34.713Z,21.12
2018-06-29T05:12:34.927Z,21.12
2018-06-29T05:13:35.131Z,21.12
2018-06-29T05:14:34.884Z,21.12
2018-06-29T05:15:35.496Z,21.12
2018-06-29T05:16:35.047Z,21.12
2018-06-29T05:17:34.978Z,21.12
2018-06-29T05:18:34.879Z,21.12
2018-06-29T05:19:34.826Z,21.12
2018-06-29T05:20:34.769Z,21.11
2018-06-29T05:21:35.151Z,21.11
2018-06-29T05:22:34.937Z,21.11
2018-06-29T05:23:34.813Z,21.11
2018-06-29T05:24:35.072Z,21.11
2018-06-29T05:25:34.944Z,21.11
2018-06-29T05:26:34.832Z,21.11
2018-06-29T05:27:35.049Z,21.11
2018-06-29T05:28:35.398Z,21.11
2018-06-29T05:29:44.899Z,21.11
2018-06-29T05:30:34.966Z,21.11
2018-06-29T05:31:35.138Z,21.11
2018-06-29T05:32:34.936Z,21.11
2018-06-29T05:33:34.858Z,21.1
2018-06-29T05:34:34.915Z,21.11
2018-06-29T05:35:34.986Z,21.1
2018-06-29T05:36:35.065Z,21.11
2018-06-29T05:37:34.962Z,21.1
2018-06-29T05:38:34.958Z,21.11
2018-06-29T05:39:35.116Z,21.11
2018-06-29T05:40:34.887Z,21.11
2018-06-29T05:41:35.850Z,21.1
2018-06-29T05:42:35.407Z,21.1
2018-06-29T05:43:35.079Z,21.1
2018-06-29T05:44:35.041Z,21.1
2018-06-29T05:45:34.907Z,21.1
2018-06-29T05:46:35.191Z,21.1
2018-06-29T05:47:34.944Z,21.1
2018-06-29T05:48:35.039Z,21.1
2018-06-29T05:49:34.933Z,21.1
2018-06-29T05:51:05.360Z,21.1
2018-06-29T05:51:35.118Z,21.1
2018-06-29T05:52:35.286Z,21.1
2018-06-29T05:53:34.928Z,21.1
2018-06-29T05:54:35.240Z,21.1
2018-06-29T05:55:35.110Z,21.1
2018-06-29T05:56:35.251Z,21.1
2018-06-29T05:57:35.734Z,21.09
2018-06-29T05:58:34.997Z,21.09
2018-06-29T05:59:35.001Z,21.09
2018-06-29T06:00:34.946Z,21.09
2018-06-29T06:01:35.018Z,21.09
2018-06-29T06:02:34.983Z,21.09
2018-06-29T06:03:34.968Z,21.09
2018-06-29T06:04:35.436Z,21.09
2018-06-29T06:05:34.945Z,21.09
2018-06-29T06:06:35.108Z,21.09
2018-06-29T06:07:35.054Z,21.09
2018-06-29T06:08:34.962Z,21.09
2018-06-29T06:09:35.059Z,21.09
2018-06-29T06:10:35.042Z,21.09
2018-06-29T06:11:34.827Z,21.09
2018-06-29T06:12:35.122Z,21.09
2018-06-29T06:13:34.946Z,21.09
2018-06-29T06:14:35.112Z,21.08
2018-06-29T06:15:35.062Z,21.08
2018-06-29T06:16:34.875Z,21.08
2018-06-29T06:17:34.800Z,21.08
2018-06-29T06:18:35.202Z,21.08
2018-06-29T06:19:35.132Z,21.08
2018-06-29T06:20:34.845Z,21.08
2018-06-29T06:21:35.074Z,21.08
2018-06-29T06:22:35.045Z,21.08
2018-06-29T06:23:34.879Z,21.08
2018-06-29T06:24:35.120Z,21.08
2018-06-29T06:25:34.843Z,21.08
2018-06-29T06:26:35.132Z,21.08
2018-06-29T06:27:35.111Z,21.07
2018-06-29T06:28:35.088Z,21.08
2018-06-29T06:29:34.829Z,21.07
2018-06-29T06:30:34.812Z,21.07
2018-06-29T06:31:34.892Z,21.07
2018-06-29T06:32:34.868Z,21.07
2018-06-29T06:33:35.122Z,21.07
2018-06-29T06:34:34.800Z,21.07
2018-06-29T06:35:34.956Z,21.07
2018-06-29T06:36:35.080Z,21.07
2018-06-29T06:37:35.117Z,21.07
2018-06-29T06:38:34.864Z,21.07
2018-06-29T06:39:35.123Z,21.07
2018-06-29T06:40:35.171Z,21.07
2018-06-29T06:42:05.320Z,21.07
2018-06-29T06:42:34.968Z,21.07
2018-06-29T06:43:34.843Z,21.07
2018-06-29T06:44:34.813Z,21.07
2018-06-29T06:45:35.144Z,21.07
2018-06-29T06:46:34.910Z,21.07
2018-06-29T06:47:34.973Z,21.07
2018-06-29T06:48:35.178Z,21.07
2018-06-29T06:49:35.167Z,21.07
2018-06-29T06:50:35.148Z,21.07
2018-06-29T06:51:35.060Z,21.07
2018-06-29T06:52:36.309Z,21.07
2018-06-29T06:53:35.225Z,21.07
2018-06-29T06:54:34.959Z,21.07
2018-06-29T06:55:34.836Z,21.07
2018-06-29T06:56:35.019Z,21.07
2018-06-29T06:57:34.910Z,21.06
2018-06-29T06:58:34.881Z,21.06
2018-06-29T06:59:34.853Z,21.06
2018-06-29T07:00:35.118Z,21.06
2018-06-29T07:01:34.978Z,21.06
2018-06-29T07:02:34.942Z,21.06
2018-06-29T07:03:34.964Z,21.06
2018-06-29T07:04:34.978Z,21.06
2018-06-29T07:05:35.011Z,21.06
2018-06-29T07:06:34.962Z,21.06
2018-06-29T07:07:34.773Z,21.06
2018-06-29T07:08:35.082Z,21.07
2018-06-29T07:09:34.877Z,21.07
2018-06-29T07:10:34.817Z,21.07
2018-06-29T07:11:34.864Z,21.08
2018-06-29T07:12:35.575Z,21.08
2018-06-29T07:13:34.904Z,21.09
2018-06-29T07:14:34.989Z,21.09
2018-06-29T07:15:34.918Z,21.11
2018-06-29T07:16:34.974Z,21.13
2018-06-29T07:17:34.924Z,21.11
2018-06-29T07:18:34.847Z,21.11
2018-06-29T07:19:34.825Z,21.11
2018-06-29T07:20:34.711Z,21.11
2018-06-29T07:21:34.934Z,21.11
2018-06-29T07:22:35.028Z,21.11
2018-06-29T07:23:34.940Z,21.11
2018-06-29T07:24:35.989Z,21.11
2018-06-29T07:25:35.029Z,21.12
2018-06-29T07:26:34.861Z,21.12
2018-06-29T07:27:35.141Z,21.12
2018-06-29T07:28:35.043Z,21.11
2018-06-29T07:29:34.986Z,21.11
2018-06-29T07:30:34.872Z,21.12
2018-06-29T07:31:34.812Z,21.11
2018-06-29T07:32:35.068Z,21.11
2018-06-29T07:33:35.052Z,21.11
2018-06-29T07:34:34.870Z,21.1
2018-06-29T07:35:35.031Z,21.1
2018-06-29T07:36:35.010Z,21.1
2018-06-29T07:37:34.766Z,21.1
2018-06-29T07:38:35.051Z,21.1
2018-06-29T07:39:34.807Z,21.1
2018-06-29T07:40:34.911Z,21.1
2018-06-29T07:41:34.795Z,21.1
2018-06-29T07:42:34.897Z,21.1
2018-06-29T07:43:34.827Z,21.1
2018-06-29T07:44:34.783Z,21.1
2018-06-29T07:45:34.900Z,21.11
2018-06-29T07:46:35.563Z,21.11
2018-06-29T07:47:35.026Z,21.11
2018-06-29T07:48:35.110Z,21.11
2018-06-29T07:49:34.802Z,21.11
2018-06-29T07:50:35.146Z,21.11
2018-06-29T07:51:35.092Z,21.11
2018-06-29T07:52:35.027Z,21.11
2018-06-29T07:53:34.772Z,21.11
2018-06-29T07:54:34.811Z,21.1
2018-06-29T07:55:34.905Z,21.11
2018-06-29T07:56:35.133Z,21.1
2018-06-29T07:57:35.123Z,21.1
2018-06-29T07:58:35.521Z,21.1
2018-06-29T07:59:35.020Z,21.1
2018-06-29T08:00:34.940Z,21.09
2018-06-29T08:01:34.994Z,21.09
2018-06-29T08:02:35.233Z,21.1
2018-06-29T08:03:34.953Z,21.09
2018-06-29T08:04:34.839Z,21.1
2018-06-29T08:05:34.942Z,21.09
2018-06-29T08:06:35.080Z,21.09
2018-06-29T08:07:34.828Z,21.09
2018-06-29T08:08:34.939Z,21.09
2018-06-29T08:09:34.959Z,21.09
2018-06-29T08:10:35.311Z,21.09
2018-06-29T08:11:34.976Z,21.09
2018-06-29T08:12:34.929Z,21.08
2018-06-29T08:13:34.979Z,21.08
2018-06-29T08:14:34.872Z,21.08
2018-06-29T08:15:34.883Z,21.08
2018-06-29T08:16:34.876Z,21.08
2018-06-29T08:17:34.913Z,21.08
2018-06-29T08:18:34.910Z,21.08
2018-06-29T08:19:34.959Z,21.08
2018-06-29T08:20:34.915Z,21.08
2018-06-29T08:21:34.923Z,21.08
2018-06-29T08:22:34.930Z,21.08
2018-06-29T08:23:34.940Z,21.08
2018-06-29T08:24:34.955Z,21.07
2018-06-29T08:25:34.942Z,21.07
2018-06-29T08:26:35.077Z,21.08
2018-06-29T08:27:35.038Z,21.07
2018-06-29T08:28:34.958Z,21.07
2018-06-29T08:29:35.046Z,21.07
2018-06-29T08:30:35.012Z,21.07
2018-06-29T08:31:34.994Z,21.07
2018-06-29T08:32:34.998Z,21.07
2018-06-29T08:33:35.000Z,21.07
2018-06-29T08:34:35.013Z,21.07
2018-06-29T08:35:35.121Z,21.07
2018-06-29T08:36:35.020Z,21.07
2018-06-29T08:37:35.140Z,21.07
2018-06-29T08:38:35.240Z,21.07
2018-06-29T08:39:35.029Z,21.07
2018-06-29T08:40:35.036Z,21.07
2018-06-29T08:41:35.044Z,21.07
2018-06-29T08:42:35.036Z,21.07
2018-06-29T08:43:35.043Z,21.07
2018-06-29T08:44:35.115Z,21.07
2018-06-29T08:45:35.067Z,21.07
2018-06-29T08:46:35.115Z,21.07
2018-06-29T08:47:35.077Z,21.07
2018-06-29T08:48:35.066Z,21.07
2018-06-29T08:49:35.292Z,21.07
2018-06-29T08:50:35.109Z,21.07
2018-06-29T08:51:35.084Z,21.07
2018-06-29T08:52:35.096Z,21.07
2018-06-29T08:53:35.103Z,21.07
2018-06-29T08:54:35.184Z,21.07
2018-06-29T08:55:35.172Z,21.07
2018-06-29T08:56:34.986Z,21.07
2018-06-29T08:57:35.052Z,21.07
2018-06-29T08:58:35.104Z,21.06
2018-06-29T08:59:35.126Z,21.06
2018-06-29T09:00:35.123Z,21.07
2018-06-29T09:01:35.091Z,21.07
2018-06-29T09:02:35.135Z,21.07
2018-06-29T09:03:35.158Z,21.06
2018-06-29T09:04:35.171Z,21.06
2018-06-29T09:05:35.154Z,21.06
2018-06-29T09:06:34.807Z,21.06
2018-06-29T09:07:34.755Z,21.06
2018-06-29T09:08:34.859Z,21.06
2018-06-29T09:09:35.139Z,21.06
2018-06-29T09:10:35.091Z,21.06
2018-06-29T09:11:35.106Z,21.06
2018-06-29T09:12:35.193Z,21.06
2018-06-29T09:13:35.138Z,21.06
2018-06-29T09:14:35.387Z,21.06
2018-06-29T09:15:35.215Z,21.06
2018-06-29T09:16:34.824Z,21.06
2018-06-29T09:17:35.216Z,21.06
2018-06-29T09:18:35.371Z,21.06
2018-06-29T09:19:35.197Z,21.06
2018-06-29T09:20:35.207Z,21.06
2018-06-29T09:21:35.251Z,21.06
2018-06-29T09:22:34.794Z,21.06
2018-06-29T09:23:54.751Z,21.06
2018-06-29T09:24:34.921Z,21.06
2018-06-29T09:25:35.134Z,21.06
2018-06-29T09:26:34.805Z,21.06
2018-06-29T09:27:34.954Z,21.06
2018-06-29T09:28:35.249Z,21.06
2018-06-29T09:29:35.168Z,21.06
2018-06-29T09:30:35.198Z,21.06
2018-06-29T09:31:34.865Z,21.06
2018-06-29T09:32:34.950Z,21.06
2018-06-29T09:33:35.266Z,21.06
2018-06-29T09:34:34.942Z,21.06
2018-06-29T09:35:34.858Z,21.06
2018-06-29T09:36:35.052Z,21.06
2018-06-29T09:37:34.764Z,21.06
2018-06-29T09:38:35.282Z,21.06
2018-06-29T09:39:35.310Z,21.06
2018-06-29T09:40:35.269Z,21.06
2018-06-29T09:41:34.941Z,21.06
2018-06-29T09:42:35.700Z,21.05
2018-06-29T09:43:34.950Z,21.05
2018-06-29T09:44:34.783Z,21.05
2018-06-29T09:45:35.014Z,21.05
2018-06-29T09:46:34.959Z,21.05
2018-06-29T09:47:35.319Z,21.05
2018-06-29T09:48:35.329Z,21.05
2018-06-29T09:49:34.878Z,21.05
2018-06-29T09:50:34.942Z,21.05
2018-06-29T09:51:35.478Z,21.05
2018-06-29T09:52:34.829Z,21.05
2018-06-29T09:53:34.793Z,21.05
2018-06-29T09:54:35.082Z,21.05
2018-06-29T09:55:35.021Z,21.05
2018-06-29T09:56:34.949Z,21.05
2018-06-29T09:57:34.939Z,21.05
2018-06-29T09:58:34.879Z,21.05
2018-06-29T09:59:35.394Z,21.04
2018-06-29T10:00:35.413Z,21.04
2018-06-29T10:01:34.778Z,21.05
2018-06-29T10:02:44.898Z,21.05
2018-06-29T10:03:34.973Z,21.05
2018-06-29T10:04:34.796Z,21.05
2018-06-29T10:05:34.807Z,21.05
2018-06-29T10:06:35.000Z,21.05
2018-06-29T10:07:35.050Z,21.05
2018-06-29T10:08:34.907Z,21.05
2018-06-29T10:09:34.950Z,21.05
2018-06-29T10:10:35.077Z,21.05
2018-06-29T10:11:34.813Z,21.05
2018-06-29T10:12:34.824Z,21.05
2018-06-29T10:13:34.985Z,21.05
2018-06-29T10:14:34.808Z,21.04
2018-06-29T10:15:34.917Z,21.04
2018-06-29T10:16:34.864Z,21.04
2018-06-29T10:17:34.806Z,21.05
2018-06-29T10:18:34.957Z,21.05
2018-06-29T10:19:35.622Z,21.04
2018-06-29T10:20:35.063Z,21.04
2018-06-29T10:21:34.986Z,21.04
2018-06-29T10:22:35.605Z,21.04
2018-06-29T10:23:34.780Z,21.05
2018-06-29T10:24:34.988Z,21.04
2018-06-29T10:25:35.444Z,21.04
2018-06-29T10:26:34.971Z,21.05
2018-06-29T10:27:34.801Z,21.04
2018-06-29T10:28:34.969Z,21.04
2018-06-29T10:29:34.971Z,21.04
2018-06-29T10:30:35.019Z,21.04
2018-06-29T10:31:34.778Z,21.04
2018-06-29T10:32:34.772Z,21.04
2018-06-29T10:33:35.115Z,21.04
2018-06-29T10:34:34.710Z,21.04
2018-06-29T10:35:34.868Z,21.04
2018-06-29T10:36:35.031Z,21.04
2018-06-29T10:37:35.001Z,21.04
2018-06-29T10:38:34.761Z,21.04
2018-06-29T10:39:34.898Z,21.04
2018-06-29T10:40:34.760Z,21.04
2018-06-29T10:41:35.155Z,21.04
2018-06-29T10:42:34.764Z,21.03
2018-06-29T10:43:34.953Z,21.04
2018-06-29T10:44:35.298Z,21.04
2018-06-29T10:45:34.884Z,21.04
2018-06-29T10:46:34.964Z,21.04
2018-06-29T10:47:34.896Z,21.04
2018-06-29T10:48:34.881Z,21.03
2018-06-29T10:49:34.897Z,21.04
2018-06-29T10:50:34.775Z,21.04
2018-06-29T10:51:34.794Z,21.03
2018-06-29T10:52:34.953Z,21.04
2018-06-29T10:53:34.951Z,21.04
2018-06-29T10:54:34.760Z,21.04
2018-06-29T10:55:34.903Z,21.04
2018-06-29T10:56:34.988Z,21.03
2018-06-29T10:57:34.971Z,21.03
2018-06-29T10:58:35.232Z,21.03
2018-06-29T10:59:34.933Z,21.03
2018-06-29T11:00:34.946Z,21.03
2018-06-29T11:01:34.864Z,21.04
2018-06-29T11:02:34.796Z,21.03
2018-06-29T11:03:34.948Z,21.03
2018-06-29T11:04:34.746Z,21.03
2018-06-29T11:05:35.459Z,21.03
2018-06-29T11:06:34.882Z,21.03
2018-06-29T11:07:34.722Z,21.04
2018-06-29T11:08:34.785Z,21.03
2018-06-29T11:09:34.937Z,21.03
2018-06-29T11:10:34.931Z,21.03
2018-06-29T11:11:34.992Z,21.03
2018-06-29T11:12:34.860Z,21.03
2018-06-29T11:13:35.066Z,21.04
2018-06-29T11:14:34.789Z,21.03
2018-06-29T11:15:34.796Z,21.03
2018-06-29T11:16:35.195Z,21.03
2018-06-29T11:17:34.831Z,21.03
2018-06-29T11:18:34.960Z,21.03
2018-06-29T11:19:35.095Z,21.03
2018-06-29T11:20:34.869Z,21.03
2018-06-29T11:21:35.050Z,21.03
2018-06-29T11:22:35.305Z,21.03
2018-06-29T11:23:35.007Z,21.03
2018-06-29T11:24:34.862Z,21.03
2018-06-29T11:25:34.873Z,21.03
2018-06-29T11:26:34.831Z,21.03
2018-06-29T11:27:34.818Z,21.03
2018-06-29T11:28:35.004Z,21.03
2018-06-29T11:29:34.957Z,21.03
2018-06-29T11:30:35.171Z,21.03
2018-06-29T11:31:35.126Z,21.03
2018-06-29T11:32:34.851Z,21.03
2018-06-29T11:33:34.940Z,21.02
2018-06-29T11:34:34.927Z,21.03
2018-06-29T11:35:34.895Z,21.03
2018-06-29T11:36:34.757Z,21.03
2018-06-29T11:37:34.759Z,21.03
2018-06-29T11:38:34.839Z,21.03
2018-06-29T11:39:35.010Z,21.03
2018-06-29T11:40:34.821Z,21.03
2018-06-29T11:41:35.212Z,21.03
2018-06-29T11:42:35.475Z,21.02
2018-06-29T11:43:34.919Z,21.03
2018-06-29T11:44:34.890Z,21.03
2018-06-29T11:45:35.025Z,21.03
2018-06-29T11:46:35.084Z,21.03
2018-06-29T11:47:35.013Z,21.03
2018-06-29T11:48:35.178Z,21.03
2018-06-29T11:49:34.853Z,21.02
2018-06-29T11:50:34.839Z,21.03
2018-06-29T11:51:34.878Z,21.03
2018-06-29T11:52:34.898Z,21.03
2018-06-29T11:53:34.749Z,21.03
2018-06-29T11:54:34.874Z,21.03
2018-06-29T11:55:34.901Z,21.03
2018-06-29T11:56:34.871Z,21.03
2018-06-29T11:57:34.813Z,21.03
2018-06-29T11:58:34.876Z,21.03
2018-06-29T11:59:34.826Z,21.03
2018-06-29T12:00:35.227Z,21.03
2018-06-29T12:01:34.943Z,21.03
2018-06-29T12:02:34.765Z,21.03
2018-06-29T12:03:34.853Z,21.03
2018-06-29T12:04:34.930Z,21.03
2018-06-29T12:05:34.750Z,21.03
2018-06-29T12:06:34.783Z,21.02
2018-06-29T12:07:34.850Z,21.03
2018-06-29T12:08:35.052Z,21.03
2018-06-29T12:09:34.772Z,21.02
2018-06-29T12:10:35.069Z,21.02
2018-06-29T12:11:34.910Z,21.02
2018-06-29T12:12:34.758Z,21.02
2018-06-29T12:13:34.853Z,21.02
2018-06-29T12:14:35.045Z,21.02
2018-06-29T12:15:34.941Z,21.02
2018-06-29T12:16:34.967Z,21.02
2018-06-29T12:17:34.756Z,21.02
2018-06-29T12:18:34.776Z,21.02
2018-06-29T12:19:34.835Z,21.02
2018-06-29T12:20:34.665Z,21.02
2018-06-29T12:21:35.046Z,21.02
2018-06-29T12:22:34.765Z,21.02
2018-06-29T12:23:34.936Z,21.02
2018-06-29T12:24:34.976Z,21.02
2018-06-29T12:25:35.252Z,21.02
2018-06-29T12:26:34.873Z,21.02
2018-06-29T12:27:34.883Z,21.02
2018-06-29T12:28:34.928Z,21.02
2018-06-29T12:29:35.309Z,21.02
2018-06-29T12:30:34.829Z,21.02
2018-06-29T12:31:34.855Z,21.02
2018-06-29T12:32:34.858Z,21.02
2018-06-29T12:33:35.708Z,21.02
2018-06-29T12:34:34.974Z,21.02
2018-06-29T12:35:36.464Z,21.02
2018-06-29T12:36:35.702Z,21.02
2018-06-29T12:37:34.825Z,21.02
2018-06-29T12:38:34.841Z,21.02
2018-06-29T12:39:34.893Z,21.02
2018-06-29T12:40:34.847Z,21.02
2018-06-29T12:41:34.854Z,21.02
2018-06-29T12:42:35.296Z,21.02
2018-06-29T12:43:34.770Z,21.02
2018-06-29T12:44:34.903Z,21.02
2018-06-29T12:45:35.434Z,21.02
2018-06-29T12:46:34.819Z,21.02
2018-06-29T12:47:34.765Z,21.02
2018-06-29T12:48:35.606Z,21.02
2018-06-29T12:49:34.878Z,21.02
2018-06-29T12:50:34.887Z,21.02
2018-06-29T12:51:35.460Z,21.02
2018-06-29T12:52:34.815Z,21.02
2018-06-29T12:53:34.907Z,21.03
2018-06-29T12:54:35.776Z,21.02